createdAt,value
2023-02-23T00:03:19.285Z,98540.03
2023-02-23T00:07:21.847Z,98539.00
2023-02-23T00:11:24.727Z,98548.38
2023-02-23T00:15:28.309Z,98542.91
2023-02-23T00:19:33.289Z,98552.59
2023-02-23T00:23:38.822Z,98549.16
2023-02-23T00:27:45.953Z,98550.16
2023-02-23T00:31:49.904Z,98533.38
2023-02-23T00:35:52.029Z,98524.81
2023-02-23T00:39:56.745Z,98523.38
2023-02-23T00:44:00.796Z,98521.00
2023-02-23T00:48:03.927Z,98515.94
2023-02-23T00:52:08.209Z,98522.25
2023-02-23T00:56:13.091Z,98512.75
2023-02-23T01:00:19.630Z,98506.53
2023-02-23T01:04:23.618Z,98505.84
2023-02-23T01:08:25.772Z,98516.41
2023-02-23T01:12:29.343Z,98512.00
2023-02-23T01:16:33.773Z,98504.44
2023-02-23T01:20:36.981Z,98504.97
2023-02-23T01:24:42.900Z,98504.53
2023-02-23T01:28:50.710Z,98507.19
2023-02-23T01:32:53.441Z,98505.22
2023-02-23T01:36:57.176Z,98510.50
2023-02-23T01:40:59.460Z,98499.09
2023-02-23T01:45:27.282Z,98494.69
2023-02-23T01:49:32.094Z,98488.91
2023-02-23T01:53:39.603Z,98487.91
2023-02-23T01:57:42.771Z,98491.31
2023-02-23T02:01:45.605Z,98492.66
2023-02-23T02:05:53.317Z,98479.66
2023-02-23T02:10:12.570Z,98477.53
2023-02-23T02:14:21.121Z,98487.69
2023-02-23T02:18:33.062Z,98485.31
2023-02-23T02:22:44.589Z,98477.00
2023-02-23T02:27:02.022Z,98469.38
2023-02-23T02:31:25.745Z,98459.31
2023-02-23T02:35:53.900Z,98451.84
2023-02-23T02:40:53.485Z,98454.44
2023-02-23T02:45:22.218Z,98459.41
2023-02-23T02:49:46.609Z,98461.09
2023-02-23T02:53:58.905Z,98455.03
2023-02-23T02:58:04.596Z,98475.56
2023-02-23T03:02:32.497Z,98482.28
2023-02-23T03:07:11.273Z,98479.56
2023-02-23T03:11:37.560Z,98474.59
2023-02-23T03:16:23.790Z,98482.41
2023-02-23T03:20:53.468Z,98485.72
2023-02-23T03:25:25.196Z,98483.72
2023-02-23T03:29:48.914Z,98487.50
2023-02-23T03:34:22.124Z,98483.59
2023-02-23T03:38:57.236Z,98479.91
2023-02-23T03:43:21.499Z,98476.66
2023-02-23T03:47:48.695Z,98475.66
2023-02-23T03:52:14.636Z,98478.59
2023-02-23T03:56:39.027Z,98480.47
2023-02-23T04:01:06.338Z,98481.59
2023-02-23T04:05:34.159Z,98477.00
2023-02-23T04:09:55.478Z,98475.06
2023-02-23T04:14:02.690Z,98481.09
2023-02-23T04:18:16.217Z,98477.47
2023-02-23T04:22:18.444Z,98477.25
2023-02-23T04:26:20.795Z,98485.22
2023-02-23T04:30:25.912Z,98485.16
2023-02-23T04:34:28.146Z,98483.22
2023-02-23T04:38:30.484Z,98483.16
2023-02-23T04:42:32.606Z,98475.19
2023-02-23T04:46:34.745Z,98481.41
2023-02-23T04:50:37.367Z,98482.41
2023-02-23T04:54:40.874Z,98477.00
2023-02-23T04:58:43.210Z,98475.19
2023-02-23T05:02:46.081Z,98480.44
2023-02-23T05:06:48.619Z,98479.03
2023-02-23T05:10:51.235Z,98477.78
2023-02-23T05:14:53.396Z,98477.50
2023-02-23T05:18:55.580Z,98477.59
2023-02-23T05:22:57.718Z,98478.44
2023-02-23T05:27:00.262Z,98478.63
2023-02-23T05:31:06.330Z,98477.78
2023-02-23T05:35:09.651Z,98477.00
2023-02-23T05:39:11.968Z,98474.09
2023-02-23T05:43:14.300Z,98472.97
2023-02-23T05:47:16.370Z,98475.63
2023-02-23T05:51:18.949Z,98471.66
2023-02-23T05:55:21.199Z,98473.00
2023-02-23T05:59:23.273Z,98475.41
2023-02-23T06:03:25.438Z,98463.47
2023-02-23T06:07:27.765Z,98469.72
2023-02-23T06:11:30.332Z,98465.56
2023-02-23T06:15:40.773Z,98473.09
2023-02-23T06:19:43.343Z,98482.81
2023-02-23T06:23:45.876Z,98487.47
2023-02-23T06:27:48.005Z,98495.13
2023-02-23T06:31:50.502Z,98497.19
2023-02-23T06:35:53.706Z,98497.16
2023-02-23T06:39:56.026Z,98501.41
2023-02-23T06:43:58.167Z,98496.34
2023-02-23T06:48:01.043Z,98507.31
2023-02-23T06:52:03.225Z,98506.38
2023-02-23T06:56:05.652Z,98516.56
2023-02-23T07:00:09.043Z,98519.06
2023-02-23T07:04:12.050Z,98524.44
2023-02-23T07:08:14.209Z,98529.31
2023-02-23T07:12:16.364Z,98533.50
2023-02-23T07:16:18.563Z,98538.09
2023-02-23T07:20:20.683Z,98544.06
2023-02-23T07:24:23.131Z,98547.56
2023-02-23T07:28:27.718Z,98548.69
2023-02-23T07:32:31.469Z,98551.44
2023-02-23T07:36:33.698Z,98555.59
2023-02-23T07:40:36.010Z,98551.66
2023-02-23T07:44:38.815Z,98563.44
2023-02-23T07:48:44.928Z,98561.34
2023-02-23T07:52:46.964Z,98551.78
2023-02-23T07:56:49.057Z,98562.69
2023-02-23T08:00:51.179Z,98556.25
2023-02-23T08:04:54.368Z,98560.47
2023-02-23T08:08:58.503Z,98561.28
2023-02-23T08:13:00.801Z,98563.16
2023-02-23T08:17:03.544Z,98557.28
2023-02-23T08:21:05.906Z,98556.75
2023-02-23T08:25:08.484Z,98550.38
2023-02-23T08:29:11.055Z,98549.56
2023-02-23T08:33:13.498Z,98558.59
2023-02-23T08:37:15.716Z,98552.31
2023-02-23T08:41:18.398Z,98555.97
2023-02-23T08:45:21.032Z,98549.50
2023-02-23T08:49:23.260Z,98557.47
2023-02-23T08:53:27.244Z,98567.16
2023-02-23T08:57:29.443Z,98566.09
2023-02-23T09:01:31.648Z,98567.28
2023-02-23T09:05:37.681Z,98562.97
2023-02-23T09:09:40.007Z,98562.06
2023-02-23T09:13:42.333Z,98560.47
2023-02-23T09:17:45.069Z,98560.69
2023-02-23T09:21:47.229Z,98555.75
2023-02-23T09:25:49.330Z,98565.84
2023-02-23T09:29:51.590Z,98573.94
2023-02-23T09:33:54.510Z,98561.03
2023-02-23T09:37:56.896Z,98564.25
2023-02-23T09:42:25.759Z,98563.84
2023-02-23T09:46:39.330Z,98559.88
2023-02-23T09:50:46.444Z,98561.38
2023-02-23T09:54:49.341Z,98564.75
2023-02-23T09:58:52.273Z,98561.19
2023-02-23T10:03:09.715Z,98559.94
2023-02-23T10:07:20.970Z,98551.59
2023-02-23T10:11:45.525Z,98563.31
2023-02-23T10:15:51.400Z,98553.88
2023-02-23T10:20:06.483Z,98544.00
2023-02-23T10:24:41.684Z,98549.28
2023-02-23T10:28:44.968Z,98548.19
2023-02-23T10:33:03.593Z,98551.84
2023-02-23T10:37:11.191Z,98560.63
2023-02-23T10:41:14.983Z,98553.91
2023-02-23T10:45:23.368Z,98548.13
2023-02-23T10:49:36.075Z,98547.31
2023-02-23T10:53:39.349Z,98557.81
2023-02-23T10:57:41.707Z,98559.06
2023-02-23T11:02:00.794Z,98554.50
2023-02-23T11:06:03.679Z,98545.75
2023-02-23T11:10:27.850Z,98544.75
2023-02-23T11:14:31.597Z,98544.84
2023-02-23T11:18:33.784Z,98534.09
2023-02-23T11:22:41.118Z,98529.25
2023-02-23T11:26:45.056Z,98531.53
2023-02-23T11:30:48.419Z,98533.91
2023-02-23T11:35:12.056Z,98534.28
2023-02-23T11:39:17.114Z,98529.25
2023-02-23T11:43:20.936Z,98527.81
2023-02-23T11:47:24.097Z,98520.69
2023-02-23T11:51:33.216Z,98517.69
2023-02-23T11:55:37.457Z,98524.09
2023-02-23T11:59:41.435Z,98513.16
2023-02-23T12:03:49.998Z,98503.38
2023-02-23T12:08:07.240Z,98500.75
2023-02-23T12:12:14.964Z,98493.41
2023-02-23T12:16:28.252Z,98499.66
2023-02-23T12:20:39.290Z,98503.31
2023-02-23T12:25:05.049Z,98501.06
2023-02-23T12:29:36.884Z,98496.56
2023-02-23T12:33:42.595Z,98490.41
2023-02-23T12:38:28.118Z,98492.25
2023-02-23T12:43:00.597Z,98487.72
2023-02-23T12:47:21.148Z,98487.28
2023-02-23T12:51:42.680Z,98477.38
2023-02-23T12:56:10.933Z,98484.06
2023-02-23T13:00:39.505Z,98472.69
2023-02-23T13:04:54.005Z,98480.44
2023-02-23T13:08:58.989Z,98476.97
2023-02-23T13:13:30.265Z,98476.47
2023-02-23T13:17:58.531Z,98472.88
2023-02-23T13:22:33.614Z,98468.78
2023-02-23T13:26:54.025Z,98468.06
2023-02-23T13:30:56.899Z,98465.16
2023-02-23T13:35:00.750Z,98457.72
2023-02-23T13:39:19.075Z,98456.47
2023-02-23T13:43:45.554Z,98453.50
2023-02-23T13:48:02.586Z,98458.41
2023-02-23T13:52:42.312Z,98452.75
2023-02-23T13:56:49.882Z,98450.25
2023-02-23T14:01:05.675Z,98447.53
2023-02-23T14:05:17.205Z,98443.78
2023-02-23T14:09:32.917Z,98442.59
2023-02-23T14:13:57.537Z,98440.41
2023-02-23T14:18:02.442Z,98437.31
2023-02-23T14:22:10.201Z,98434.53
2023-02-23T14:26:35.685Z,98431.38
2023-02-23T14:30:59.002Z,98430.78
2023-02-23T14:35:02.550Z,98432.06
2023-02-23T14:39:10.579Z,98435.03
2023-02-23T14:43:38.330Z,98432.56
2023-02-23T14:47:45.330Z,98442.72
2023-02-23T14:52:07.755Z,98431.56
2023-02-23T14:56:32.573Z,98430.28
2023-02-23T15:00:42.652Z,98431.06
2023-02-23T15:04:45.810Z,98428.97
2023-02-23T15:08:47.946Z,98432.16
2023-02-23T15:12:51.324Z,98430.75
2023-02-23T15:16:56.608Z,98421.22
2023-02-23T15:20:59.336Z,98423.19
2023-02-23T15:25:06.787Z,98415.03
2023-02-23T15:29:14.943Z,98410.50
2023-02-23T15:33:28.875Z,98405.91
2023-02-23T15:37:38.345Z,98408.09
2023-02-23T15:41:42.806Z,98408.91
2023-02-23T15:45:50.277Z,98404.78
2023-02-23T15:49:52.692Z,98406.69
2023-02-23T15:53:55.520Z,98408.03
2023-02-23T15:58:00.456Z,98411.19
2023-02-23T16:02:10.681Z,98416.44
2023-02-23T16:06:24.767Z,98407.13
2023-02-23T16:10:29.098Z,98413.88
2023-02-23T16:14:41.148Z,98416.72
2023-02-23T16:18:43.511Z,98405.72
2023-02-23T16:22:47.454Z,98402.63
2023-02-23T16:26:54.901Z,98399.84
2023-02-23T16:30:58.560Z,98407.00
2023-02-23T16:35:03.843Z,98422.19
2023-02-23T16:39:12.963Z,98413.09
2023-02-23T16:43:15.644Z,98422.66
2023-02-23T16:47:23.970Z,98419.13
2023-02-23T16:51:28.373Z,98433.81
2023-02-23T16:55:30.677Z,98427.38
2023-02-23T16:59:32.992Z,98430.50
2023-02-23T17:03:40.966Z,98432.78
2023-02-23T17:07:50.786Z,98439.63
2023-02-23T17:11:53.083Z,98444.03
2023-02-23T17:15:56.666Z,98442.75
2023-02-23T17:19:58.763Z,98443.00
2023-02-23T17:24:03.742Z,98441.97
2023-02-23T17:28:05.956Z,98455.81
2023-02-23T17:32:08.398Z,98459.81
2023-02-23T17:36:14.954Z,98457.94
2023-02-23T17:40:28.717Z,98455.81
2023-02-23T17:44:31.597Z,98463.81
2023-02-23T17:48:36.827Z,98463.81
2023-02-23T17:52:38.924Z,98465.38
2023-02-23T17:56:41.386Z,98470.16
2023-02-23T18:00:43.648Z,98468.22
2023-02-23T18:04:46.797Z,98477.84
2023-02-23T18:08:48.998Z,98478.06
2023-02-23T18:12:52.858Z,98482.47
2023-02-23T18:16:55.112Z,98493.16
2023-02-23T18:20:59.473Z,98488.66
2023-02-23T18:25:01.677Z,98486.34
2023-02-23T18:29:04.926Z,98483.97
2023-02-23T18:33:08.724Z,98480.56
2023-02-23T18:37:11.318Z,98492.28
2023-02-23T18:41:14.153Z,98486.16
2023-02-23T18:45:16.773Z,98485.31
2023-02-23T18:49:22.020Z,98485.22
2023-02-23T18:53:24.095Z,98484.63
2023-02-23T18:57:26.547Z,98485.94
2023-02-23T19:01:33.427Z,98488.88
2023-02-23T19:05:37.798Z,98489.88
2023-02-23T19:09:41.002Z,98490.03
2023-02-23T19:13:43.110Z,98494.72
2023-02-23T19:17:47.185Z,98494.03
2023-02-23T19:21:50.335Z,98494.84
2023-02-23T19:25:52.684Z,98507.81
2023-02-23T19:29:54.894Z,98506.22
2023-02-23T19:33:58.311Z,98512.38
2023-02-23T19:38:02.491Z,98508.44
2023-02-23T19:42:05.138Z,98514.00
2023-02-23T19:46:09.872Z,98534.03
2023-02-23T19:50:13.670Z,98533.41
2023-02-23T19:54:17.849Z,98528.28
2023-02-23T19:58:26.983Z,98539.81
2023-02-23T20:02:29.161Z,98531.31
2023-02-23T20:06:37.816Z,98524.44
2023-02-23T20:10:42.872Z,98534.78
2023-02-23T20:14:45.262Z,98532.03
2023-02-23T20:18:48.405Z,98532.63
2023-02-23T20:22:53.682Z,98530.97
2023-02-23T20:26:57.229Z,98522.84
2023-02-23T20:31:01.720Z,98532.31
2023-02-23T20:35:04.747Z,98532.03
2023-02-23T20:39:06.935Z,98539.06
2023-02-23T20:43:09.247Z,98551.44
2023-02-23T20:47:12.614Z,98546.63
2023-02-23T20:51:19.443Z,98555.25
2023-02-23T20:55:28.386Z,98555.13
2023-02-23T20:59:32.405Z,98560.28
2023-02-23T21:03:36.305Z,98565.28
2023-02-23T21:07:43.866Z,98554.09
2023-02-23T21:11:51.020Z,98558.66
2023-02-23T21:16:01.118Z,98562.34
2023-02-23T21:20:07.342Z,98557.84
2023-02-23T21:24:10.649Z,98559.13
2023-02-23T21:28:12.816Z,98560.97
2023-02-23T21:32:16.829Z,98570.44
2023-02-23T21:36:19.102Z,98563.31
2023-02-23T21:40:22.300Z,98571.25
2023-02-23T21:44:25.008Z,98569.84
2023-02-23T21:48:27.548Z,98567.38
2023-02-23T21:52:31.408Z,98568.53
2023-02-23T21:56:35.067Z,98570.63
2023-02-23T22:00:37.259Z,98567.03
2023-02-23T22:04:40.433Z,98568.03
2023-02-23T22:08:47.495Z,98561.16
2023-02-23T22:12:56.004Z,98561.72
2023-02-23T22:16:58.812Z,98562.28
2023-02-23T22:21:04.520Z,98555.53
2023-02-23T22:25:08.025Z,98560.94
2023-02-23T22:29:11.328Z,98559.31
2023-02-23T22:33:13.862Z,98555.78
2023-02-23T22:37:16.259Z,98554.53
2023-02-23T22:41:18.789Z,98564.38
2023-02-23T22:45:21.161Z,98562.84
2023-02-23T22:49:23.349Z,98565.69
2023-02-23T22:53:26.390Z,98561.75
2023-02-23T22:57:29.218Z,98558.22
2023-02-23T23:01:34.841Z,98549.19
2023-02-23T23:05:37.672Z,98546.56
2023-02-23T23:09:40.233Z,98548.75
2023-02-23T23:13:45.718Z,98537.28
2023-02-23T23:17:49.545Z,98553.25
2023-02-23T23:21:55.467Z,98550.94
2023-02-23T23:25:58.486Z,98543.94
2023-02-23T23:30:01.398Z,98541.41
2023-02-23T23:34:12.174Z,98540.50
2023-02-23T23:38:14.583Z,98543.94
2023-02-23T23:42:17.007Z,98544.75
2023-02-23T23:46:25.283Z,98548.28
2023-02-23T23:50:27.556Z,98543.00
2023-02-23T23:54:31.186Z,98536.56
2023-02-23T23:58:34.078Z,98538.66
